Time;durP1;ratioP1;P1;durP2;ratioP2;P2;SDS_P1;SDS_P2;PMS_P1;PMS_P2;Temp;Humidity;BMP_temperature;BMP_pressure;BME280_temperature;BME280_humidity;BME280_pressure;Samples;Min_cycle;Max_cycle;Signal;HPM_P1;HPM_P2
2021/06/01 00:01:31;;;;;;;2.95;1.30;;;21.30;51.50;;;;;;5034595;28;20518;-63
2021/06/01 00:03:57;;;;;;;1.88;1.40;;;21.30;51.40;;;;;;5034438;28;20183;-62
2021/06/01 00:06:23;;;;;;;1.05;1.00;;;21.30;51.40;;;;;;5034880;28;20231;-63
2021/06/01 00:08:48;;;;;;;1.60;1.30;;;21.20;51.30;;;;;;5034451;28;20581;-63
2021/06/01 00:11:14;;;;;;;1.20;1.10;;;21.20;51.30;;;;;;5034549;28;20207;-64
2021/06/01 00:13:40;;;;;;;1.23;1.13;;;21.20;51.40;;;;;;5034459;28;20215;-63
2021/06/01 00:16:06;;;;;;;1.30;1.20;;;21.20;51.40;;;;;;5034755;28;20180;-63
2021/06/01 00:18:31;;;;;;;1.30;1.20;;;21.20;51.40;;;;;;5034123;28;20515;-63
2021/06/01 00:20:57;;;;;;;1.38;1.25;;;21.20;51.40;;;;;;5100523;22;20613;-60
2021/06/01 00:23:22;;;;;;;1.67;1.58;;;21.20;51.40;;;;;;5074922;28;20170;-60
2021/06/01 00:25:48;;;;;;;1.85;1.27;;;21.20;51.40;;;;;;5072932;28;20182;-60
2021/06/01 00:28:14;;;;;;;1.70;1.20;;;21.20;51.50;;;;;;5075092;28;20251;-60
2021/06/01 00:30:42;;;;;;;1.30;1.20;;;21.20;51.50;;;;;;5074664;28;20591;-60
2021/06/01 00:33:08;;;;;;;2.00;1.17;;;21.20;51.50;;;;;;5074625;28;20186;-60
2021/06/01 00:35:34;;;;;;;1.30;1.20;;;21.20;51.60;;;;;;5074860;28;20174;-61
2021/06/01 00:38:03;;;;;;;3.30;1.50;;;21.20;51.50;;;;;;5074723;28;20198;-61
2021/06/01 00:40:29;;;;;;;0.90;0.90;;;21.20;51.50;;;;;;5074368;28;20711;-61
2021/06/01 00:42:54;;;;;;;1.88;1.40;;;21.20;51.70;;;;;;5074755;28;20220;-61
2021/06/01 00:45:22;;;;;;;1.52;1.40;;;21.20;51.60;;;;;;5074811;28;20177;-61
2021/06/01 00:47:47;;;;;;;1.55;1.40;;;21.20;51.70;;;;;;5074325;28;20182;-61
2021/06/01 00:50:15;;;;;;;1.08;1.08;;;21.10;51.60;;;;;;5056966;28;20173;-60
2021/06/01 00:52:40;;;;;;;1.20;1.13;;;21.10;51.70;;;;;;5073746;28;20202;-61
2021/06/01 00:55:06;;;;;;;1.40;1.30;;;21.10;51.70;;;;;;5074508;28;20638;-61
2021/06/01 00:57:32;;;;;;;1.23;1.13;;;21.10;51.70;;;;;;5074471;28;20182;-61
2021/06/01 00:59:58;;;;;;;1.20;1.10;;;21.10;51.70;;;;;;5074003;28;20528;-61
2021/06/01 01:02:23;;;;;;;1.45;1.35;;;21.10;51.80;;;;;;5074722;28;20651;-61
2021/06/01 01:04:49;;;;;;;1.10;1.10;;;21.10;51.80;;;;;;5073931;28;20705;-61
2021/06/01 01:07:21;;;;;;;1.20;1.10;;;21.10;51.80;;;;;;5074018;28;20170;-61
2021/06/01 01:09:46;;;;;;;1.60;1.50;;;21.10;51.80;;;;;;5056801;28;20223;-61
2021/06/01 01:12:23;;;;;;;1.35;1.08;;;21.10;51.80;;;;;;5038884;28;20162;-61
2021/06/01 01:14:59;;;;;;;1.40;1.30;;;21.10;51.80;;;;;;5039347;28;20213;-61
2021/06/01 01:17:45;;;;;;;1.27;1.17;;;21.10;51.90;;;;;;5040838;28;20178;-61
2021/06/01 01:20:14;;;;;;;1.42;1.30;;;21.10;51.90;;;;;;5058514;28;20632;-61
2021/06/01 01:22:41;;;;;;;1.05;1.05;;;21.10;51.90;;;;;;5073608;28;20194;-61
2021/06/01 01:25:30;;;;;;;1.27;1.17;;;21.10;51.90;;;;;;5056657;28;20178;-61
2021/06/01 01:27:59;;;;;;;1.25;1.15;;;21.10;51.90;;;;;;5055183;28;21012;-60
2021/06/01 01:30:25;;;;;;;1.42;1.33;;;21.10;51.90;;;;;;5074012;28;20174;-60
2021/06/01 01:32:59;;;;;;;1.08;0.98;;;21.10;51.90;;;;;;5073713;28;20335;-61
2021/06/01 01:35:31;;;;;;;1.25;1.15;;;21.10;52.00;;;;;;5073449;28;20205;-61
2021/06/01 01:38:00;;;;;;;1.02;0.93;;;21.10;52.00;;;;;;5055962;28;20182;-61
2021/06/01 01:40:30;;;;;;;1.17;1.08;;;21.00;51.90;;;;;;5056283;28;20376;-61
2021/06/01 01:43:01;;;;;;;1.40;1.30;;;21.00;51.90;;;;;;5072867;28;20640;-61
2021/06/01 01:45:30;;;;;;;1.67;1.00;;;21.00;52.00;;;;;;5041099;28;20174;-60
2021/06/01 01:50:45;;;;;;;2.67;1.40;;;21.00;52.00;;;;;;5058235;28;20174;-61
2021/06/01 01:53:15;;;;;;;1.52;1.20;;;21.00;52.00;;;;;;5073478;28;20224;-61
2021/06/01 01:55:41;;;;;;;1.17;1.10;;;21.00;52.70;;;;;;5055925;28;20205;-61
2021/06/01 01:58:07;;;;;;;1.00;1.00;;;21.00;52.10;;;;;;5038908;28;20174;-60
2021/06/01 02:00:32;;;;;;;1.63;1.50;;;21.00;52.00;;;;;;5073305;28;20181;-60
2021/06/01 02:02:58;;;;;;;0.93;0.93;;;21.00;52.10;;;;;;5055038;28;20194;-61
2021/06/01 02:05:24;;;;;;;1.27;1.17;;;21.00;52.10;;;;;;5073361;28;20174;-61
2021/06/01 02:07:49;;;;;;;1.42;1.33;;;21.00;52.10;;;;;;5054974;28;20175;-61
2021/06/01 02:10:15;;;;;;;1.30;1.20;;;21.00;52.10;;;;;;5072621;28;20177;-61
2021/06/01 02:12:40;;;;;;;1.10;1.10;;;21.00;52.20;;;;;;5073148;28;20216;-61
2021/06/01 02:15:08;;;;;;;1.27;1.17;;;21.00;52.20;;;;;;5072884;28;20213;-60
2021/06/01 02:17:33;;;;;;;1.20;1.10;;;21.00;52.10;;;;;;5072329;28;20201;-61
2021/06/01 02:19:59;;;;;;;1.35;1.15;;;21.00;52.20;;;;;;5072780;28;20206;-61
2021/06/01 02:25:38;;;;;;;1.63;1.30;;;20.90;52.20;;;;;;5042147;28;20205;-61
2021/06/01 02:28:20;;;;;;;0.95;0.95;;;21.00;52.20;;;;;;5051409;28;20190;-60
2021/06/01 02:31:02;;;;;;;1.30;1.20;;;20.90;52.20;;;;;;5054529;28;20175;-60
2021/06/01 02:33:28;;;;;;;2.17;1.00;;;20.90;52.20;;;;;;5073063;28;20285;-60
2021/06/01 02:35:54;;;;;;;1.52;1.35;;;20.90;52.20;;;;;;5054783;28;20664;-64
2021/06/01 02:38:19;;;;;;;1.33;1.23;;;20.90;52.20;;;;;;5037870;28;20257;-61
2021/06/01 02:40:45;;;;;;;1.33;1.23;;;20.90;52.20;;;;;;5054743;28;20175;-61
2021/06/01 02:43:13;;;;;;;1.92;1.15;;;20.90;52.30;;;;;;5038145;28;20644;-61
2021/06/01 02:45:39;;;;;;;1.20;1.10;;;20.90;52.30;;;;;;5071956;28;20610;-61
2021/06/01 02:48:05;;;;;;;1.25;1.17;;;20.90;52.30;;;;;;5072797;28;20179;-61
2021/06/01 02:50:31;;;;;;;1.50;1.40;;;20.90;52.30;;;;;;5072366;28;20253;-61
2021/06/01 02:52:57;;;;;;;1.10;1.10;;;20.90;52.30;;;;;;5072193;28;20279;-61
2021/06/01 02:55:23;;;;;;;1.10;1.00;;;20.90;52.30;;;;;;5054752;28;20647;-61
2021/06/01 02:57:48;;;;;;;1.30;1.20;;;20.90;52.30;;;;;;5071969;28;20217;-61
2021/06/01 03:00:19;;;;;;;1.17;1.10;;;20.90;52.30;;;;;;5054444;28;20209;-60
2021/06/01 03:02:45;;;;;;;1.30;1.20;;;20.90;52.40;;;;;;5072180;28;20643;-61
2021/06/01 03:05:11;;;;;;;1.30;1.20;;;20.90;52.40;;;;;;5054734;28;20172;-61
2021/06/01 03:07:38;;;;;;;1.20;1.10;;;20.90;52.40;;;;;;5071787;28;20687;-61
2021/06/01 03:10:04;;;;;;;2.03;1.20;;;20.90;52.40;;;;;;5072630;28;20186;-61
2021/06/01 03:14:55;;;;;;;1.00;1.00;;;20.80;52.40;;;;;;5072040;28;20715;-60
2021/06/01 03:17:21;;;;;;;1.30;1.20;;;20.90;52.40;;;;;;5072567;28;20236;-61
2021/06/01 03:19:46;;;;;;;0.80;0.80;;;20.80;52.50;;;;;;5071785;28;20182;-60
2021/06/01 03:22:12;;;;;;;1.10;1.00;;;20.80;52.40;;;;;;5071719;28;20688;-61
2021/06/01 03:24:37;;;;;;;1.20;1.10;;;20.90;52.50;;;;;;5072111;28;20174;-60
2021/06/01 03:27:03;;;;;;;0.93;0.93;;;20.90;52.50;;;;;;5071910;28;20185;-60
2021/06/01 03:29:29;;;;;;;1.42;1.33;;;20.80;52.50;;;;;;5072081;28;20201;-61
2021/06/01 03:31:55;;;;;;;1.25;1.10;;;20.80;52.50;;;;;;5072092;28;20200;-60
2021/06/01 03:34:22;;;;;;;1.35;1.25;;;20.80;52.50;;;;;;5071630;28;20210;-61
2021/06/01 03:36:48;;;;;;;1.15;1.05;;;20.80;52.50;;;;;;5075887;28;20182;-61
2021/06/01 03:39:13;;;;;;;1.20;1.10;;;20.80;52.50;;;;;;5075887;28;20701;-61
2021/06/01 03:41:39;;;;;;;1.50;1.13;;;20.80;52.50;;;;;;5075214;28;20170;-61
2021/06/01 03:44:04;;;;;;;1.20;1.20;;;20.80;52.50;;;;;;5076052;28;20178;-61
2021/06/01 03:46:30;;;;;;;1.35;1.25;;;20.80;52.50;;;;;;5076044;28;20205;-61
2021/06/01 03:48:55;;;;;;;1.23;1.13;;;20.80;52.60;;;;;;5075380;28;20545;-61
2021/06/01 03:51:21;;;;;;;1.85;1.10;;;20.80;52.50;;;;;;5075989;28;20257;-61
2021/06/01 03:53:48;;;;;;;1.25;1.15;;;20.80;52.60;;;;;;5075162;28;20330;-61
2021/06/01 03:56:17;;;;;;;1.17;1.10;;;20.80;52.50;;;;;;5075118;28;20185;-61
2021/06/01 03:58:42;;;;;;;1.40;1.30;;;20.80;52.50;;;;;;5075718;28;20170;-61
2021/06/01 04:01:08;;;;;;;1.10;1.00;;;20.80;52.50;;;;;;5075527;28;20689;-60
2021/06/01 04:03:39;;;;;;;1.63;1.30;;;20.80;52.50;;;;;;5074953;28;20170;-61
2021/06/01 04:06:05;;;;;;;0.90;0.90;;;20.80;52.50;;;;;;5075636;28;20624;-61
2021/06/01 04:08:31;;;;;;;1.30;1.20;;;20.80;52.50;;;;;;5075176;28;20186;-61
2021/06/01 04:10:56;;;;;;;1.40;1.30;;;20.80;52.50;;;;;;5074861;28;20166;-62
2021/06/01 04:13:22;;;;;;;0.95;0.90;;;20.80;52.40;;;;;;5075499;28;20178;-61
2021/06/01 04:15:47;;;;;;;0.95;0.95;;;20.80;52.50;;;;;;5074797;28;20536;-61
2021/06/01 04:18:13;;;;;;;1.08;1.00;;;20.80;52.50;;;;;;5074986;28;20210;-61
2021/06/01 04:20:38;;;;;;;1.20;1.10;;;20.80;52.40;;;;;;5074915;28;20317;-60
2021/06/01 04:23:03;;;;;;;1.40;1.27;;;20.80;52.40;;;;;;5075229;28;20177;-60
2021/06/01 04:25:29;;;;;;;1.30;1.10;;;20.80;52.40;;;;;;5074677;28;20193;-60
2021/06/01 04:27:54;;;;;;;2.15;1.20;;;20.80;52.40;;;;;;5074738;28;20651;-60
2021/06/01 04:30:20;;;;;;;2.10;1.45;;;20.80;52.40;;;;;;5075082;28;20174;-60
2021/06/01 04:32:46;;;;;;;1.30;1.20;;;20.80;52.40;;;;;;5074324;28;20175;-61
2021/06/01 04:35:11;;;;;;;1.00;1.00;;;20.80;52.40;;;;;;5075254;28;20213;-61
2021/06/01 04:37:37;;;;;;;1.25;1.17;;;20.80;52.30;;;;;;5074001;28;20235;-61
2021/06/01 04:40:03;;;;;;;1.40;1.30;;;20.80;52.30;;;;;;5074733;28;20200;-60
2021/06/01 04:42:29;;;;;;;1.10;1.05;;;20.80;52.40;;;;;;5074878;28;20570;-61
2021/06/01 04:44:54;;;;;;;1.27;1.10;;;20.80;52.30;;;;;;5074245;28;20624;-61
2021/06/01 04:47:20;;;;;;;1.42;1.30;;;20.80;52.30;;;;;;5074849;28;20179;-61
2021/06/01 04:49:49;;;;;;;1.55;1.45;;;20.80;52.40;;;;;;5074265;28;20174;-61
2021/06/01 04:52:14;;;;;;;1.10;1.00;;;20.80;52.30;;;;;;5056731;28;20624;-61
2021/06/01 04:54:40;;;;;;;1.25;1.15;;;20.80;52.30;;;;;;5074318;28;20210;-61
2021/06/01 04:57:06;;;;;;;1.00;0.90;;;20.80;52.30;;;;;;5074406;28;20638;-61
2021/06/01 04:59:32;;;;;;;1.10;1.10;;;20.80;52.30;;;;;;5073846;28;20178;-61
2021/06/01 05:01:57;;;;;;;1.10;1.00;;;20.80;52.30;;;;;;5074584;28;20167;-60
2021/06/01 05:04:23;;;;;;;1.30;1.20;;;20.80;52.30;;;;;;5074252;28;20636;-61
2021/06/01 05:06:48;;;;;;;0.90;0.90;;;20.80;52.30;;;;;;5073667;28;20204;-61
2021/06/01 05:09:14;;;;;;;1.20;1.00;;;20.90;52.40;;;;;;5056417;28;20228;-61
2021/06/01 05:11:39;;;;;;;1.60;1.50;;;20.80;52.30;;;;;;5074128;28;20167;-62
2021/06/01 05:14:10;;;;;;;1.10;1.00;;;20.80;52.30;;;;;;5073544;28;20246;-61
2021/06/01 05:16:36;;;;;;;1.38;1.30;;;20.80;52.30;;;;;;5074051;28;20228;-61
2021/06/01 05:19:01;;;;;;;1.30;1.20;;;20.80;52.30;;;;;;5056159;28;20183;-61
2021/06/01 05:21:27;;;;;;;1.27;1.05;;;20.80;52.30;;;;;;5073448;28;20222;-60
2021/06/01 05:23:52;;;;;;;1.30;1.20;;;20.80;52.40;;;;;;5073907;28;20198;-61
2021/06/01 05:26:18;;;;;;;0.95;0.95;;;20.80;52.40;;;;;;5074001;28;20249;-60
2021/06/01 05:28:43;;;;;;;1.10;1.10;;;20.80;52.40;;;;;;5073342;28;20564;-60
2021/06/01 05:31:22;;;;;;;1.00;1.00;;;20.80;52.40;;;;;;5073880;28;20577;-61
2021/06/01 05:33:59;;;;;;;1.17;1.15;;;20.90;52.40;;;;;;5072845;28;20198;-60
2021/06/01 05:36:25;;;;;;;1.40;1.30;;;20.80;52.40;;;;;;5073783;28;20190;-61
2021/06/01 05:38:50;;;;;;;2.03;1.40;;;20.80;52.40;;;;;;5073409;28;20178;-61
2021/06/01 05:41:16;;;;;;;1.52;1.42;;;20.90;52.40;;;;;;5073293;28;20545;-61
2021/06/01 05:43:41;;;;;;;1.23;0.98;;;20.90;52.40;;;;;;5073411;28;20352;-61
2021/06/01 05:46:07;;;;;;;1.67;1.20;;;20.90;52.40;;;;;;5073288;28;20219;-61
2021/06/01 05:48:33;;;;;;;1.45;1.20;;;20.80;52.40;;;;;;5072733;28;20208;-61
2021/06/01 05:50:58;;;;;;;1.10;1.05;;;20.80;52.40;;;;;;5073697;28;20695;-61
2021/06/01 05:53:24;;;;;;;1.05;1.05;;;20.80;52.40;;;;;;5055603;28;20174;-61
2021/06/01 05:55:50;;;;;;;1.00;1.00;;;20.90;52.40;;;;;;5072587;28;20584;-61
2021/06/01 05:58:16;;;;;;;1.10;1.00;;;20.90;52.50;;;;;;5072750;28;20166;-61
2021/06/01 06:00:42;;;;;;;1.08;1.08;;;20.90;52.50;;;;;;5072712;28;20266;-60
2021/06/01 06:03:07;;;;;;;1.35;1.23;;;20.80;52.40;;;;;;5073018;28;20171;-61
2021/06/01 06:05:33;;;;;;;1.23;1.10;;;20.90;52.50;;;;;;5072261;28;20182;-61
2021/06/01 06:08:06;;;;;;;1.42;1.33;;;20.90;52.50;;;;;;5072888;28;20186;-61
2021/06/01 06:10:31;;;;;;;1.27;1.10;;;20.90;52.50;;;;;;5072479;28;20239;-61
2021/06/01 06:12:57;;;;;;;1.05;1.02;;;20.90;52.50;;;;;;5073334;28;20170;-61
2021/06/01 06:15:22;;;;;;;1.38;1.27;;;20.90;52.50;;;;;;5073043;28;20206;-61
2021/06/01 06:17:53;;;;;;;1.33;1.23;;;20.90;52.50;;;;;;5072118;28;20170;-61
2021/06/01 06:20:18;;;;;;;1.30;1.20;;;20.90;52.50;;;;;;5073771;28;20254;-61
2021/06/01 06:22:44;;;;;;;1.25;1.10;;;20.90;52.50;;;;;;5072578;28;20213;-60
2021/06/01 06:25:10;;;;;;;1.65;1.55;;;20.90;52.50;;;;;;5072647;28;20220;-61
2021/06/01 06:27:36;;;;;;;1.30;1.20;;;20.90;52.50;;;;;;5072497;28;20175;-60
2021/06/01 06:30:04;;;;;;;1.85;1.10;;;20.80;52.40;;;;;;5072231;28;20170;-60
2021/06/01 06:32:30;;;;;;;1.10;1.10;;;20.90;52.40;;;;;;5072742;28;20308;-61
2021/06/01 06:34:55;;;;;;;1.30;1.20;;;20.90;52.40;;;;;;5072816;28;20206;-61
2021/06/01 06:37:22;;;;;;;1.30;1.20;;;20.90;52.50;;;;;;5072611;28;20174;-61
2021/06/01 06:39:48;;;;;;;1.63;1.52;;;20.90;52.40;;;;;;5072612;28;20265;-61
2021/06/01 06:42:14;;;;;;;2.08;1.23;;;20.90;52.40;;;;;;5072693;28;20171;-61
2021/06/01 06:44:42;;;;;;;1.35;1.25;;;20.90;52.50;;;;;;5071870;28;20239;-61
2021/06/01 06:49:36;;;;;;;1.50;1.40;;;20.90;52.50;;;;;;5071983;28;20194;-61
2021/06/01 06:52:02;;;;;;;1.38;1.27;;;21.00;52.50;;;;;;5054211;28;20625;-61
2021/06/01 06:54:28;;;;;;;1.48;1.30;;;21.00;52.50;;;;;;5072704;28;20619;-61
2021/06/01 06:56:53;;;;;;;1.77;1.42;;;21.00;52.70;;;;;;5072203;28;20186;-62
2021/06/01 06:59:19;;;;;;;1.90;1.27;;;21.00;52.90;;;;;;5072280;28;20541;-60
2021/06/01 07:01:44;;;;;;;6.53;1.50;;;21.00;52.80;;;;;;5072570;28;20541;-60
2021/06/01 07:04:10;;;;;;;1.77;1.35;;;21.00;52.70;;;;;;5072607;28;20524;-60
2021/06/01 07:06:35;;;;;;;1.17;1.13;;;21.10;52.60;;;;;;5071931;28;20170;-59
2021/06/01 07:09:01;;;;;;;1.55;1.10;;;21.00;52.70;;;;;;5072721;28;20174;-61
2021/06/01 07:11:26;;;;;;;2.33;1.50;;;21.10;52.70;;;;;;5076083;28;20212;-60
2021/06/01 07:14:01;;;;;;;2.53;1.38;;;21.10;52.80;;;;;;5075789;28;20646;-61
2021/06/01 07:16:26;;;;;;;1.70;1.48;;;21.10;52.80;;;;;;5076812;28;20181;-59
2021/06/01 07:18:52;;;;;;;2.85;1.30;;;21.10;52.70;;;;;;5076281;28;20181;-60
2021/06/01 07:21:17;;;;;;;4.10;1.60;;;21.20;52.80;;;;;;5075760;28;20229;-60
2021/06/01 07:23:43;;;;;;;2.83;1.60;;;21.10;52.70;;;;;;5075955;28;20182;-60
2021/06/01 07:26:10;;;;;;;2.40;1.67;;;21.10;52.80;;;;;;5076418;28;20174;-60
2021/06/01 07:28:35;;;;;;;2.17;1.30;;;21.10;52.80;;;;;;5075626;28;20198;-60
2021/06/01 07:31:02;;;;;;;1.20;1.20;;;21.20;52.80;;;;;;5076150;28;20656;-60
2021/06/01 07:33:28;;;;;;;3.85;1.42;;;21.20;52.90;;;;;;5076207;28;20625;-60
2021/06/01 07:35:53;;;;;;;4.20;1.75;;;21.20;52.80;;;;;;5075892;28;20190;-60
2021/06/01 07:38:19;;;;;;;5.13;1.88;;;21.20;52.80;;;;;;5076203;28;20180;-60
2021/06/01 07:40:44;;;;;;;1.73;1.60;;;21.20;52.80;;;;;;5075264;28;20170;-60
2021/06/01 07:43:10;;;;;;;1.27;1.17;;;21.20;52.80;;;;;;5075989;28;20174;-60
2021/06/01 07:45:35;;;;;;;2.05;1.70;;;21.20;52.80;;;;;;5075486;28;20636;-60
2021/06/01 07:48:01;;;;;;;2.72;1.63;;;21.20;52.80;;;;;;5075590;28;20180;-61
2021/06/01 07:50:26;;;;;;;1.65;1.52;;;21.20;52.80;;;;;;5076114;28;20701;-61
2021/06/01 07:52:52;;;;;;;1.52;1.38;;;21.20;52.80;;;;;;5075520;28;20182;-61
2021/06/01 07:55:18;;;;;;;1.73;1.48;;;21.20;52.80;;;;;;5075340;28;20210;-60
2021/06/01 07:57:43;;;;;;;1.58;1.40;;;21.20;52.80;;;;;;5075540;28;20174;-61
2021/06/01 08:00:10;;;;;;;1.70;1.48;;;21.30;52.80;;;;;;5075775;28;20300;-60
2021/06/01 08:02:35;;;;;;;2.03;1.40;;;21.20;52.80;;;;;;5075059;28;20225;-60
2021/06/01 08:05:01;;;;;;;2.22;1.40;;;21.30;52.80;;;;;;5075710;28;20174;-60
2021/06/01 08:07:27;;;;;;;2.83;1.38;;;21.30;52.80;;;;;;5075374;28;20650;-61
2021/06/01 08:09:52;;;;;;;1.48;1.30;;;21.30;52.80;;;;;;5074920;28;20222;-61
2021/06/01 08:12:18;;;;;;;1.48;1.38;;;21.30;52.80;;;;;;5075328;28;20178;-60
2021/06/01 08:14:43;;;;;;;2.15;1.80;;;21.30;52.80;;;;;;5074809;28;20297;-60
2021/06/01 08:17:10;;;;;;;1.63;1.52;;;21.30;52.80;;;;;;5075114;28;20175;-60
2021/06/01 08:19:38;;;;;;;1.70;1.60;;;21.40;52.90;;;;;;5075252;28;20189;-61
2021/06/01 08:24:38;;;;;;;1.67;1.50;;;21.40;52.80;;;;;;5074654;28;20239;-60
2021/06/01 08:27:04;;;;;;;1.95;1.45;;;21.40;52.80;;;;;;5075032;28;20178;-60
2021/06/01 08:29:30;;;;;;;1.55;1.45;;;21.40;52.80;;;;;;5075288;28;20174;-60
2021/06/01 08:31:55;;;;;;;2.38;1.30;;;21.40;52.90;;;;;;5074648;28;20182;-60
2021/06/01 08:34:21;;;;;;;1.95;1.40;;;21.40;52.80;;;;;;5075090;28;20248;-60
2021/06/01 08:36:46;;;;;;;1.13;1.02;;;21.40;52.80;;;;;;5074368;28;20615;-61
2021/06/01 08:39:12;;;;;;;1.98;1.55;;;21.40;52.80;;;;;;5075034;28;20186;-60
2021/06/01 08:41:38;;;;;;;2.65;1.20;;;21.40;52.80;;;;;;5074523;28;20257;-61
2021/06/01 08:44:04;;;;;;;1.50;1.40;;;21.40;52.80;;;;;;5074767;28;20259;-61
2021/06/01 08:46:30;;;;;;;2.45;1.75;;;21.50;52.80;;;;;;5075076;28;20175;-61
2021/06/01 08:48:56;;;;;;;1.40;1.30;;;21.50;52.80;;;;;;5074649;28;20171;-60
2021/06/01 08:51:22;;;;;;;2.03;1.40;;;21.50;52.80;;;;;;5074419;28;20668;-61
2021/06/01 08:53:51;;;;;;;1.55;1.45;;;21.50;52.80;;;;;;5074408;28;20202;-60
2021/06/01 08:56:17;;;;;;;1.52;1.42;;;21.50;52.80;;;;;;5074627;28;20185;-60
2021/06/01 08:58:43;;;;;;;2.13;1.40;;;21.50;52.80;;;;;;5074251;28;20548;-60
2021/06/01 09:01:09;;;;;;;2.03;1.50;;;21.50;52.70;;;;;;5074955;28;20260;-60
2021/06/01 09:03:36;;;;;;;2.97;1.40;;;21.50;52.70;;;;;;5074203;28;20178;-60
2021/06/01 09:06:27;;;;;;;1.25;1.17;;;21.60;52.80;;;;;;5074391;28;20174;-60
2021/06/01 09:21:03;;;;;;;3.70;2.58;;;21.80;50.90;;;;;;5073454;28;20644;-63
2021/06/01 09:22:51;;;;;;;4.15;2.65;;;21.80;49.40;;;;;;5073744;28;20679;-61
2021/06/01 09:25:19;;;;;;;3.30;2.78;;;21.90;48.70;;;;;;5073818;28;20187;-61
2021/06/01 09:27:49;;;;;;;3.67;2.50;;;22.00;48.50;;;;;;5073527;28;20253;-61
2021/06/01 09:30:37;;;;;;;3.92;2.50;;;21.90;48.80;;;;;;5073838;28;20620;-61
2021/06/01 09:33:29;;;;;;;3.50;2.88;;;22.00;47.20;;;;;;5072619;28;20175;-61
2021/06/01 09:35:55;;;;;;;4.53;3.10;;;22.10;46.90;;;;;;5071025;28;20203;-61
2021/06/01 09:38:25;;;;;;;3.45;2.72;;;22.10;46.90;;;;;;5074616;28;20532;-61
2021/06/01 09:41:04;;;;;;;3.08;2.80;;;22.00;47.00;;;;;;5072953;28;20215;-61
2021/06/01 09:43:30;;;;;;;3.75;2.75;;;22.10;46.10;;;;;;5073652;28;20178;-61
2021/06/01 09:45:55;;;;;;;3.03;2.58;;;22.10;45.40;;;;;;5055618;28;20177;-61
2021/06/01 09:48:23;;;;;;;2.78;2.58;;;22.10;44.90;;;;;;5072812;28;20167;-61
2021/06/01 09:53:26;;;;;;;6.18;2.88;;;22.10;44.80;;;;;;5073525;28;20178;-61
2021/06/01 09:55:52;;;;;;;3.83;2.85;;;22.10;44.10;;;;;;5072657;28;20190;-61
2021/06/01 09:58:25;;;;;;;4.05;2.70;;;22.20;44.20;;;;;;5073206;28;20178;-61
2021/06/01 10:00:50;;;;;;;3.78;2.60;;;22.20;44.20;;;;;;5073027;28;20938;-61
2021/06/01 10:03:21;;;;;;;3.28;2.20;;;22.30;44.60;;;;;;5073067;28;20178;-61
2021/06/01 10:05:56;;;;;;;3.13;2.70;;;22.20;45.00;;;;;;5072707;28;20628;-61
2021/06/01 10:08:23;;;;;;;3.47;2.90;;;22.30;43.80;;;;;;5072980;28;21033;-62
2021/06/01 10:11:04;;;;;;;3.65;2.40;;;22.30;43.90;;;;;;5073128;28;20249;-61
2021/06/01 10:13:31;;;;;;;3.05;2.60;;;22.20;43.90;;;;;;5072934;28;20182;-61
2021/06/01 10:15:58;;;;;;;2.97;2.50;;;22.30;43.40;;;;;;5072630;28;20653;-61
2021/06/01 10:18:29;;;;;;;3.85;2.70;;;22.30;43.50;;;;;;5073292;28;20175;-61
2021/06/01 10:20:54;;;;;;;5.20;3.13;;;22.30;42.90;;;;;;5072378;28;20268;-61
2021/06/01 10:23:26;;;;;;;3.55;2.45;;;22.30;42.70;;;;;;5072594;28;20178;-62
2021/06/01 10:25:51;;;;;;;3.45;2.45;;;22.40;42.50;;;;;;5072741;28;20182;-61
2021/06/01 10:28:25;;;;;;;2.08;1.90;;;22.50;42.10;;;;;;5072922;28;20193;-61
2021/06/01 10:30:50;;;;;;;3.58;2.50;;;22.50;41.50;;;;;;5072148;28;20545;-61
2021/06/01 10:33:16;;;;;;;2.47;2.28;;;22.50;41.20;;;;;;5073011;28;20640;-61
2021/06/01 10:35:47;;;;;;;2.72;2.17;;;22.50;41.50;;;;;;5054707;28;20297;-62
2021/06/01 10:53:26;;;;;;;3.83;2.28;;;22.50;40.20;;;;;;5072340;28;20232;-62
2021/06/01 10:55:55;;;;;;;17.65;3.30;;;22.50;40.10;;;;;;5072309;28;20235;-61
2021/06/01 10:58:50;;;;;;;6.47;2.22;;;22.60;40.20;;;;;;5072010;28;20514;-61
2021/06/01 11:04:31;;;;;;;4.35;2.42;;;22.60;40.10;;;;;;5072635;28;20182;-61
2021/06/01 11:09:32;;;;;;;4.22;2.00;;;22.70;39.10;;;;;;5071813;28;20196;-62
2021/06/01 11:12:13;;;;;;;3.58;2.30;;;22.70;39.30;;;;;;5072020;28;20530;-61
2021/06/01 11:14:39;;;;;;;2.10;1.88;;;22.60;39.10;;;;;;5072081;28;20671;-61
2021/06/01 11:17:04;;;;;;;2.38;2.00;;;22.70;39.50;;;;;;5072168;28;20228;-62
2021/06/01 11:20:12;;;;;;;3.45;2.28;;;22.60;39.10;;;;;;5072039;28;20174;-62
2021/06/01 11:33:28;;;;;;;3.00;2.22;;;22.80;39.60;;;;;;5057011;28;20185;-63
2021/06/01 11:35:59;;;;;;;3.25;2.00;;;22.80;40.00;;;;;;5054339;28;20190;-63
2021/06/01 11:38:30;;;;;;;3.00;2.17;;;22.90;39.80;;;;;;5071981;28;20167;-63
2021/06/01 11:43:31;;;;;;;2.20;2.00;;;22.90;39.70;;;;;;5072009;28;20171;-63
2021/06/01 11:46:25;;;;;;;6.15;2.40;;;22.90;39.70;;;;;;5072031;28;20178;-64
2021/06/01 11:51:25;;;;;;;3.58;1.90;;;22.90;39.30;;;;;;5071922;28;20174;-64
2021/06/01 11:54:03;;;;;;;1.98;1.70;;;22.90;39.70;;;;;;5071539;28;20199;-63
2021/06/01 12:13:09;;;;;;;2.58;2.00;;;22.90;39.80;;;;;;5075094;28;20177;-63
2021/06/01 12:18:30;;;;;;;2.58;2.30;;;23.00;39.30;;;;;;5075436;28;20579;-63
2021/06/01 12:20:55;;;;;;;2.40;2.20;;;23.00;39.70;;;;;;5075354;28;20257;-63
2021/06/01 12:23:57;;;;;;;1.92;1.77;;;22.90;39.80;;;;;;5074668;28;20665;-63
2021/06/01 12:26:29;;;;;;;2.25;2.05;;;22.90;39.30;;;;;;5064603;28;20197;-62
2021/06/01 12:31:51;;;;;;;3.42;2.25;;;23.00;39.20;;;;;;5074926;28;20193;-62
2021/06/01 12:34:21;;;;;;;3.92;2.00;;;23.10;39.30;;;;;;5075010;28;20230;-62
2021/06/01 12:42:59;;;;;;;3.42;2.33;;;23.10;38.60;;;;;;5075121;28;20219;-63
2021/06/01 12:45:56;;;;;;;2.55;2.35;;;23.10;38.80;;;;;;5073347;28;20190;-63
2021/06/01 13:39:08;;;;;;;2.17;1.95;;;23.40;38.90;;;;;;5073570;28;20181;-63
2021/06/01 13:45:59;;;;;;;2.38;2.28;;;23.40;38.90;;;;;;5073545;28;20592;-63
2021/06/01 13:47:09;;;;;;;2.20;1.98;;;23.50;39.60;;;;;;5058325;28;20181;-63
2021/06/01 13:49:38;;;;;;;2.13;2.03;;;23.50;38.20;;;;;;5073521;28;20185;-63
2021/06/01 14:09:28;;;;;;;4.05;2.20;;;23.70;37.90;;;;;;5072808;28;20224;-64
2021/06/01 14:19:52;;;;;;;2.00;1.85;;;23.90;37.30;;;;;;5057290;28;20197;-63
2021/06/01 14:27:52;;;;;;;4.05;1.92;;;24.00;37.70;;;;;;5072376;28;20245;-62
2021/06/01 14:30:37;;;;;;;3.67;1.70;;;24.10;37.50;;;;;;5072602;28;20249;-63
2021/06/01 14:35:57;;;;;;;2.20;2.00;;;24.10;37.30;;;;;;5071946;28;20209;-63
2021/06/01 14:38:48;;;;;;;2.92;1.90;;;24.10;37.70;;;;;;5056818;28;20166;-63
2021/06/01 15:30:36;;;;;;;2.15;1.90;;;24.00;37.70;;;;;;5056791;28;20667;-62
2021/06/01 15:49:36;;;;;;;2.88;2.00;;;24.30;37.90;;;;;;5075748;28;20219;-63
2021/06/01 15:52:35;;;;;;;2.15;1.95;;;24.40;37.90;;;;;;5075890;28;20174;-63
2021/06/01 16:14:07;;;;;;;2.30;1.88;;;24.80;35.90;;;;;;5060013;28;20173;-64
2021/06/01 16:22:29;;;;;;;6.13;2.92;;;24.90;35.40;;;;;;5074613;28;20226;-62
2021/06/01 16:33:26;;;;;;;4.45;3.30;;;25.00;34.90;;;;;;5043474;28;20640;-63
2021/06/01 16:44:29;;;;;;;5.68;3.30;;;25.10;33.50;;;;;;5074631;28;20181;-63
2021/06/01 17:03:28;;;;;;;7.28;4.35;;;25.20;35.50;;;;;;5074356;28;20181;-62
2021/06/01 17:05:58;;;;;;;7.15;4.03;;;25.30;35.90;;;;;;5074081;28;20221;-62
2021/06/01 17:08:47;;;;;;;5.50;4.40;;;25.30;36.20;;;;;;5057352;28;20166;-62
2021/06/01 17:11:15;;;;;;;6.43;3.88;;;25.20;36.30;;;;;;5074096;28;20170;-62
2021/06/01 17:13:54;;;;;;;6.18;4.05;;;25.30;36.50;;;;;;5074022;28;20178;-62
2021/06/01 17:35:14;;;;;;;6.95;3.60;;;25.20;37.60;;;;;;5073876;28;20293;-62
2021/06/01 17:37:39;;;;;;;5.03;3.38;;;25.20;37.70;;;;;;5073588;28;20579;-62
2021/06/01 17:40:08;;;;;;;5.85;3.55;;;25.10;37.80;;;;;;5073435;28;20170;-62
2021/06/01 17:42:34;;;;;;;4.38;3.38;;;25.10;37.90;;;;;;5073361;28;20186;-62
2021/06/01 17:45:01;;;;;;;4.28;2.85;;;25.10;38.10;;;;;;5055869;28;20178;-62
2021/06/01 17:47:27;;;;;;;4.85;3.15;;;25.00;38.30;;;;;;5073053;28;20182;-62
2021/06/01 17:49:53;;;;;;;4.75;3.20;;;25.00;38.40;;;;;;5072984;28;20640;-62
2021/06/01 17:52:28;;;;;;;3.28;2.65;;;25.00;38.40;;;;;;5073327;28;20244;-62
2021/06/01 17:54:54;;;;;;;3.45;2.88;;;24.90;38.50;;;;;;5072509;28;20209;-62
2021/06/01 17:57:20;;;;;;;3.72;2.72;;;24.90;38.60;;;;;;5073386;28;20174;-62
2021/06/01 17:59:47;;;;;;;4.22;2.72;;;24.90;38.70;;;;;;5072627;28;20186;-62
2021/06/01 18:02:13;;;;;;;3.80;2.78;;;24.80;38.80;;;;;;5073700;28;20185;-61
2021/06/01 18:04:38;;;;;;;2.90;2.58;;;24.80;39.10;;;;;;5073260;28;20178;-61
2021/06/01 18:07:09;;;;;;;4.97;3.38;;;24.70;39.60;;;;;;5054890;28;20175;-61
2021/06/01 19:24:55;;;;;;;2.10;1.90;;;23.60;42.60;;;;;;5051616;28;20167;-60
2021/06/01 19:51:59;;;;;;;2.42;2.03;;;23.40;43.00;;;;;;5050498;28;20194;-60
2021/06/01 19:54:25;;;;;;;3.22;2.28;;;23.40;43.20;;;;;;5051829;28;20203;-60
2021/06/01 19:56:51;;;;;;;2.33;2.05;;;23.40;43.20;;;;;;5050441;28;20190;-60